sensor_id;sensor_type;location;lat;lon;timestamp;pressure;altitude;pressure_sealevel;temperature;humidity
69221;BME280;56331;51.992;20.910;2023-03-14T00:00:06;98638.05;;;22.03;36.28
69221;BME280;56331;51.992;20.910;2023-03-14T00:02:36;98636.66;;;22.03;36.27
69221;BME280;56331;51.992;20.910;2023-03-14T00:05:04;98624.19;;;22.03;36.30
69221;BME280;56331;51.992;20.910;2023-03-14T00:07:37;98624.76;;;22.02;36.27
69221;BME280;56331;51.992;20.910;2023-03-14T00:10:06;98623.38;;;22.02;36.29
69221;BME280;56331;51.992;20.910;2023-03-14T00:12:33;98626.73;;;22.02;36.33
69221;BME280;56331;51.992;20.910;2023-03-14T00:14:59;98623.97;;;22.02;36.34
69221;BME280;56331;51.992;20.910;2023-03-14T00:17:29;98617.26;;;22.03;36.27
69221;BME280;56331;51.992;20.910;2023-03-14T00:19:55;98614.06;;;22.01;36.29
69221;BME280;56331;51.992;20.910;2023-03-14T00:22:22;98609.91;;;22.01;36.27
69221;BME280;56331;51.992;20.910;2023-03-14T00:24:48;98611.30;;;22.01;36.24
69221;BME280;56331;51.992;20.910;2023-03-14T00:27:15;98602.97;;;22.01;36.29
69221;BME280;56331;51.992;20.910;2023-03-14T00:29:42;98600.80;;;22.00;36.26
69221;BME280;56331;51.992;20.910;2023-03-14T00:32:09;98591.88;;;22.01;36.26
69221;BME280;56331;51.992;20.910;2023-03-14T00:34:36;98599.61;;;22.01;36.28
69221;BME280;56331;51.992;20.910;2023-03-14T00:37:02;98598.03;;;22.00;36.27
69221;BME280;56331;51.992;20.910;2023-03-14T00:39:28;98589.11;;;22.01;36.24
69221;BME280;56331;51.992;20.910;2023-03-14T00:41:55;98588.52;;;22.01;36.23
69221;BME280;56331;51.992;20.910;2023-03-14T00:44:21;98573.86;;;22.01;36.26
69221;BME280;56331;51.992;20.910;2023-03-14T00:46:47;98570.69;;;22.02;36.22
69221;BME280;56331;51.992;20.910;2023-03-14T00:49:14;98571.51;;;22.03;36.25
69221;BME280;56331;51.992;20.910;2023-03-14T00:51:40;98563.98;;;22.03;36.21
69221;BME280;56331;51.992;20.910;2023-03-14T00:54:06;98554.65;;;22.02;36.16
69221;BME280;56331;51.992;20.910;2023-03-14T00:56:33;98551.08;;;22.01;36.16
69221;BME280;56331;51.992;20.910;2023-03-14T00:58:59;98550.48;;;22.02;36.21
69221;BME280;56331;51.992;20.910;2023-03-14T01:01:25;98552.47;;;22.01;36.20
69221;BME280;56331;51.992;20.910;2023-03-14T01:03:53;98546.33;;;22.02;36.22
69221;BME280;56331;51.992;20.910;2023-03-14T01:06:25;98532.27;;;22.01;36.17
69221;BME280;56331;51.992;20.910;2023-03-14T01:08:49;98528.11;;;22.01;36.18
69221;BME280;56331;51.992;20.910;2023-03-14T01:11:22;98532.27;;;22.01;36.11
69221;BME280;56331;51.992;20.910;2023-03-14T01:13:49;98519.80;;;22.01;36.17
69221;BME280;56331;51.992;20.910;2023-03-14T01:16:16;98523.36;;;22.01;36.16
69221;BME280;56331;51.992;20.910;2023-03-14T01:18:44;98512.86;;;22.01;36.15
69221;BME280;56331;51.992;20.910;2023-03-14T01:21:19;98513.66;;;22.01;36.19
69221;BME280;56331;51.992;20.910;2023-03-14T01:23:46;98507.31;;;22.01;36.17
69221;BME280;56331;51.992;20.910;2023-03-14T01:26:16;98507.91;;;22.00;36.14
69221;BME280;56331;51.992;20.910;2023-03-14T01:28:45;98508.70;;;22.01;36.08
69221;BME280;56331;51.992;20.910;2023-03-14T01:31:12;98508.48;;;22.00;36.10
69221;BME280;56331;51.992;20.910;2023-03-14T01:33:39;98504.32;;;22.00;36.09
69221;BME280;56331;51.992;20.910;2023-03-14T01:36:07;98504.55;;;22.01;36.09
69221;BME280;56331;51.992;20.910;2023-03-14T01:38:35;98507.91;;;22.00;36.04
69221;BME280;56331;51.992;20.910;2023-03-14T01:41:02;98505.52;;;21.99;35.97
69221;BME280;56331;51.992;20.910;2023-03-14T01:43:31;98509.48;;;21.98;36.01
69221;BME280;56331;51.992;20.910;2023-03-14T01:51:05;98513.05;;;21.98;35.99
69221;BME280;56331;51.992;20.910;2023-03-14T01:53:34;98510.05;;;21.97;36.01
69221;BME280;56331;51.992;20.910;2023-03-14T01:56:00;98499.18;;;21.98;35.98
69221;BME280;56331;51.992;20.910;2023-03-14T01:58:27;98489.48;;;21.98;35.95
69221;BME280;56331;51.992;20.910;2023-03-14T02:00:57;98508.29;;;21.99;35.92
69221;BME280;56331;51.992;20.910;2023-03-14T02:03:26;98508.29;;;21.99;35.96
69221;BME280;56331;51.992;20.910;2023-03-14T02:05:57;98510.47;;;21.99;35.96
69221;BME280;56331;51.992;20.910;2023-03-14T02:08:24;98503.53;;;21.99;35.91
69221;BME280;56331;51.992;20.910;2023-03-14T02:10:53;98497.01;;;21.98;35.83
69221;BME280;56331;51.992;20.910;2023-03-14T02:13:20;98494.02;;;21.97;35.85
69221;BME280;56331;51.992;20.910;2023-03-14T02:15:48;98488.47;;;21.97;35.75
69221;BME280;56331;51.992;20.910;2023-03-14T02:18:15;98489.85;;;21.97;35.78
69221;BME280;56331;51.992;20.910;2023-03-14T02:23:28;98484.71;;;21.95;35.73
69221;BME280;56331;51.992;20.910;2023-03-14T02:28:24;98465.08;;;21.94;35.72
69221;BME280;56331;51.992;20.910;2023-03-14T02:30:50;98469.47;;;21.95;35.70
69221;BME280;56331;51.992;20.910;2023-03-14T02:33:19;98451.44;;;21.95;35.73
69221;BME280;56331;51.992;20.910;2023-03-14T02:36:00;98436.20;;;21.95;35.71
69221;BME280;56331;51.992;20.910;2023-03-14T02:38:37;98436.98;;;21.96;35.67
69221;BME280;56331;51.992;20.910;2023-03-14T02:41:09;98433.02;;;21.97;35.63
69221;BME280;56331;51.992;20.910;2023-03-14T02:43:32;98426.69;;;21.96;35.54
69221;BME280;56331;51.992;20.910;2023-03-14T02:46:00;98427.28;;;21.96;35.56
69221;BME280;56331;51.992;20.910;2023-03-14T02:48:35;98423.91;;;21.96;35.53
69221;BME280;56331;51.992;20.910;2023-03-14T02:51:03;98422.33;;;21.95;35.57
69221;BME280;56331;51.992;20.910;2023-03-14T02:53:32;98415.59;;;21.96;35.58
69221;BME280;56331;51.992;20.910;2023-03-14T02:55:59;98415.41;;;21.95;35.50
69221;BME280;56331;51.992;20.910;2023-03-14T02:58:29;98414.80;;;21.96;35.56
69221;BME280;56331;51.992;20.910;2023-03-14T03:00:55;98415.97;;;21.95;35.54
69221;BME280;56331;51.992;20.910;2023-03-14T03:03:21;98423.72;;;21.95;35.49
69221;BME280;56331;51.992;20.910;2023-03-14T03:05:50;98425.89;;;21.96;35.04
69221;BME280;56331;51.992;20.910;2023-03-14T03:08:18;98433.02;;;21.97;34.70
69221;BME280;56331;51.992;20.910;2023-03-14T03:10:45;98423.31;;;21.97;34.44
69221;BME280;56331;51.992;20.910;2023-03-14T03:13:11;98424.11;;;21.97;34.36
69221;BME280;56331;51.992;20.910;2023-03-14T03:15:38;98419.56;;;21.99;34.17
69221;BME280;56331;51.992;20.910;2023-03-14T03:18:04;98416.80;;;21.99;33.96
69221;BME280;56331;51.992;20.910;2023-03-14T03:20:30;98419.38;;;21.98;33.83
69221;BME280;56331;51.992;20.910;2023-03-14T03:22:58;98416.80;;;21.99;33.78
69221;BME280;56331;51.992;20.910;2023-03-14T03:25:28;98416.61;;;21.98;33.65
69221;BME280;56331;51.992;20.910;2023-03-14T03:27:54;98415.22;;;21.98;33.59
69221;BME280;56331;51.992;20.910;2023-03-14T03:30:21;98410.84;;;21.97;33.55
69221;BME280;56331;51.992;20.910;2023-03-14T03:32:47;98406.68;;;21.97;33.44
69221;BME280;56331;51.992;20.910;2023-03-14T03:35:14;98410.23;;;21.97;33.34
69221;BME280;56331;51.992;20.910;2023-03-14T03:37:41;98416.61;;;21.98;33.24
69221;BME280;56331;51.992;20.910;2023-03-14T03:40:08;98414.20;;;21.96;33.12
69221;BME280;56331;51.992;20.910;2023-03-14T03:42:36;98408.66;;;21.96;33.09
69221;BME280;56331;51.992;20.910;2023-03-14T03:45:03;98401.73;;;21.96;32.98
69221;BME280;56331;51.992;20.910;2023-03-14T03:47:31;98401.14;;;21.97;32.87
69221;BME280;56331;51.992;20.910;2023-03-14T03:49:57;98394.02;;;21.96;32.79
69221;BME280;56331;51.992;20.910;2023-03-14T03:52:23;98398.17;;;21.96;32.79
69221;BME280;56331;51.992;20.910;2023-03-14T03:54:50;98395.40;;;21.96;32.69
69221;BME280;56331;51.992;20.910;2023-03-14T03:57:16;98388.47;;;21.96;32.67
69221;BME280;56331;51.992;20.910;2023-03-14T03:59:43;98385.70;;;21.96;32.59
69221;BME280;56331;51.992;20.910;2023-03-14T04:02:09;98387.68;;;21.95;32.54
69221;BME280;56331;51.992;20.910;2023-03-14T04:04:36;98380.53;;;21.94;32.55
69221;BME280;56331;51.992;20.910;2023-03-14T04:07:03;98392.41;;;21.95;32.76
69221;BME280;56331;51.992;20.910;2023-03-14T04:09:30;98386.07;;;21.94;32.92
69221;BME280;56331;51.992;20.910;2023-03-14T04:11:57;98390.04;;;21.93;33.02
69221;BME280;56331;51.992;20.910;2023-03-14T04:14:23;98396.38;;;21.94;33.04
69221;BME280;56331;51.992;20.910;2023-03-14T04:16:50;98403.91;;;21.93;33.13
69221;BME280;56331;51.992;20.910;2023-03-14T04:19:16;98400.34;;;21.93;33.18
69221;BME280;56331;51.992;20.910;2023-03-14T04:21:42;98398.36;;;21.93;33.22
69221;BME280;56331;51.992;20.910;2023-03-14T04:24:11;98394.57;;;21.92;33.22
69221;BME280;56331;51.992;20.910;2023-03-14T04:26:37;98385.66;;;21.92;33.26
69221;BME280;56331;51.992;20.910;2023-03-14T04:29:04;98393.19;;;21.92;33.33
69221;BME280;56331;51.992;20.910;2023-03-14T04:31:30;98409.82;;;21.92;33.37
69221;BME280;56331;51.992;20.910;2023-03-14T04:33:57;98409.63;;;21.91;33.36
69221;BME280;56331;51.992;20.910;2023-03-14T04:36:23;98409.63;;;21.91;33.35
69221;BME280;56331;51.992;20.910;2023-03-14T04:38:50;98398.31;;;21.90;33.42
69221;BME280;56331;51.992;20.910;2023-03-14T04:41:16;98398.31;;;21.90;33.44
69221;BME280;56331;51.992;20.910;2023-03-14T04:43:42;98390.59;;;21.89;33.49
69221;BME280;56331;51.992;20.910;2023-03-14T04:46:09;98385.66;;;21.89;33.49
69221;BME280;56331;51.992;20.910;2023-03-14T04:48:35;98368.42;;;21.89;33.46
69221;BME280;56331;51.992;20.910;2023-03-14T04:51:06;98362.87;;;21.89;33.56
69221;BME280;56331;51.992;20.910;2023-03-14T04:53:32;98359.92;;;21.88;33.61
69221;BME280;56331;51.992;20.910;2023-03-14T04:56:00;98356.55;;;21.89;33.64
69221;BME280;56331;51.992;20.910;2023-03-14T04:58:26;98359.51;;;21.90;33.57
69221;BME280;56331;51.992;20.910;2023-03-14T05:00:52;98349.62;;;21.89;33.58
69221;BME280;56331;51.992;20.910;2023-03-14T05:03:22;98353.77;;;21.89;33.61
69221;BME280;56331;51.992;20.910;2023-03-14T05:05:48;98339.31;;;21.89;33.57
69221;BME280;56331;51.992;20.910;2023-03-14T05:08:14;98330.21;;;21.89;33.62
69221;BME280;56331;51.992;20.910;2023-03-14T05:10:41;98325.27;;;21.88;33.62
69221;BME280;56331;51.992;20.910;2023-03-14T05:13:08;98323.66;;;21.87;33.59
69221;BME280;56331;51.992;20.910;2023-03-14T05:15:34;98320.10;;;21.87;33.50
69221;BME280;56331;51.992;20.910;2023-03-14T05:18:01;98324.06;;;21.85;33.56
69221;BME280;56331;51.992;20.910;2023-03-14T05:20:27;98327.44;;;21.85;33.49
69221;BME280;56331;51.992;20.910;2023-03-14T05:22:53;98326.05;;;21.85;33.57
69221;BME280;56331;51.992;20.910;2023-03-14T05:25:20;98330.39;;;21.82;33.46
69221;BME280;56331;51.992;20.910;2023-03-14T05:27:46;98346.42;;;21.83;33.46
69221;BME280;56331;51.992;20.910;2023-03-14T05:30:13;98339.87;;;21.81;33.50
69221;BME280;56331;51.992;20.910;2023-03-14T05:32:40;98331.37;;;21.80;33.47
69221;BME280;56331;51.992;20.910;2023-03-14T05:35:07;98328.59;;;21.80;33.67
69221;BME280;56331;51.992;20.910;2023-03-14T05:37:33;98329.20;;;21.80;33.73
69221;BME280;56331;51.992;20.910;2023-03-14T05:40:00;98324.81;;;21.79;33.81
69221;BME280;56331;51.992;20.910;2023-03-14T05:42:27;98312.34;;;21.79;33.96
69221;BME280;56331;51.992;20.910;2023-03-14T05:44:53;98313.73;;;21.79;34.09
69221;BME280;56331;51.992;20.910;2023-03-14T05:47:19;98306.02;;;21.78;34.21
69221;BME280;56331;51.992;20.910;2023-03-14T05:49:45;98300.47;;;21.78;34.36
69221;BME280;56331;51.992;20.910;2023-03-14T05:52:12;98297.51;;;21.77;34.67
69221;BME280;56331;51.992;20.910;2023-03-14T05:54:38;98285.63;;;21.77;34.99
69221;BME280;56331;51.992;20.910;2023-03-14T05:57:05;98275.12;;;21.76;35.14
69221;BME280;56331;51.992;20.910;2023-03-14T05:59:31;98271.18;;;21.77;35.47
69221;BME280;56331;51.992;20.910;2023-03-14T06:01:57;98279.49;;;21.77;35.65
69221;BME280;56331;51.992;20.910;2023-03-14T06:04:24;98272.95;;;21.79;35.68
69221;BME280;56331;51.992;20.910;2023-03-14T06:06:51;98267.41;;;21.79;35.31
69221;BME280;56331;51.992;20.910;2023-03-14T06:09:17;98270.99;;;21.80;35.01
69221;BME280;56331;51.992;20.910;2023-03-14T06:11:45;98272.19;;;21.82;34.99
69221;BME280;56331;51.992;20.910;2023-03-14T06:14:12;98258.33;;;21.82;34.96
69221;BME280;56331;51.992;20.910;2023-03-14T06:16:38;98247.44;;;21.83;34.85
69221;BME280;56331;51.992;20.910;2023-03-14T06:19:05;98244.85;;;21.84;34.86
69221;BME280;56331;51.992;20.910;2023-03-14T06:21:31;98247.05;;;21.85;34.85
69221;BME280;56331;51.992;20.910;2023-03-14T06:23:58;98242.48;;;21.87;34.91
69221;BME280;56331;51.992;20.910;2023-03-14T06:26:24;98241.10;;;21.87;34.91
69221;BME280;56331;51.992;20.910;2023-03-14T06:28:51;98235.37;;;21.85;35.03
69221;BME280;56331;51.992;20.910;2023-03-14T06:31:19;98233.00;;;21.88;35.15
69221;BME280;56331;51.992;20.910;2023-03-14T06:33:46;98225.48;;;21.88;35.17
69221;BME280;56331;51.992;20.910;2023-03-14T06:36:12;98223.49;;;21.89;35.17
69221;BME280;56331;51.992;20.910;2023-03-14T06:38:39;98223.49;;;21.89;35.16
69221;BME280;56331;51.992;20.910;2023-03-14T06:41:06;98224.28;;;21.89;35.09
69221;BME280;56331;51.992;20.910;2023-03-14T06:43:32;98215.17;;;21.89;35.02
69221;BME280;56331;51.992;20.910;2023-03-14T06:46:02;98216.56;;;21.89;34.90
69221;BME280;56331;51.992;20.910;2023-03-14T06:48:31;98222.30;;;21.90;34.79
69221;BME280;56331;51.992;20.910;2023-03-14T06:50:57;98224.87;;;21.89;34.70
69221;BME280;56331;51.992;20.910;2023-03-14T06:53:23;98229.22;;;21.90;34.64
69221;BME280;56331;51.992;20.910;2023-03-14T06:55:51;98228.44;;;21.89;34.60
69221;BME280;56331;51.992;20.910;2023-03-14T06:58:18;98227.27;;;21.90;34.61
69221;BME280;56331;51.992;20.910;2023-03-14T07:00:47;98225.67;;;21.89;34.58
69221;BME280;56331;51.992;20.910;2023-03-14T07:03:15;98229.22;;;21.90;34.56
69221;BME280;56331;51.992;20.910;2023-03-14T07:05:42;98218.73;;;21.89;34.53
69221;BME280;56331;51.992;20.910;2023-03-14T07:08:08;98223.68;;;21.90;34.50
69221;BME280;56331;51.992;20.910;2023-03-14T07:10:35;98227.27;;;21.90;34.46
69221;BME280;56331;51.992;20.910;2023-03-14T07:13:02;98225.89;;;21.90;34.40
69221;BME280;56331;51.992;20.910;2023-03-14T07:15:33;98227.27;;;21.90;34.35
69221;BME280;56331;51.992;20.910;2023-03-14T07:17:56;98222.52;;;21.91;34.37
69221;BME280;56331;51.992;20.910;2023-03-14T07:20:23;98213.41;;;21.90;34.35
69221;BME280;56331;51.992;20.910;2023-03-14T07:22:49;98229.22;;;21.90;34.29
69221;BME280;56331;51.992;20.910;2023-03-14T07:25:16;98239.52;;;21.89;34.35
69221;BME280;56331;51.992;20.910;2023-03-14T07:27:44;98245.86;;;21.90;34.24
69221;BME280;56331;51.992;20.910;2023-03-14T07:30:12;98250.83;;;21.90;34.26
69221;BME280;56331;51.992;20.910;2023-03-14T07:32:38;98235.18;;;21.92;34.26
69221;BME280;56331;51.992;20.910;2023-03-14T07:35:06;98236.56;;;21.92;34.19
69221;BME280;56331;51.992;20.910;2023-03-14T07:37:32;98239.55;;;21.93;34.09
69221;BME280;56331;51.992;20.910;2023-03-14T07:39:59;98257.16;;;21.94;34.01
69221;BME280;56331;51.992;20.910;2023-03-14T07:42:25;98254.98;;;21.94;33.99
69221;BME280;56331;51.992;20.910;2023-03-14T07:44:51;98262.11;;;21.95;34.04
69221;BME280;56331;51.992;20.910;2023-03-14T07:47:17;98249.06;;;21.95;34.02
69221;BME280;56331;51.992;20.910;2023-03-14T07:49:44;98249.25;;;21.96;34.04
69221;BME280;56331;51.992;20.910;2023-03-14T07:52:10;98262.52;;;21.97;34.08
69221;BME280;56331;51.992;20.910;2023-03-14T07:54:39;98248.28;;;21.98;34.26
69221;BME280;56331;51.992;20.910;2023-03-14T07:57:06;98255.02;;;22.01;34.81
69221;BME280;56331;51.992;20.910;2023-03-14T07:59:32;98253.44;;;22.03;34.73
69221;BME280;56331;51.992;20.910;2023-03-14T08:01:58;98256.20;;;22.07;34.85
69221;BME280;56331;51.992;20.910;2023-03-14T08:04:25;98250.28;;;22.09;35.15
69221;BME280;56331;51.992;20.910;2023-03-14T08:06:51;98257.02;;;22.11;35.56
69221;BME280;56331;51.992;20.910;2023-03-14T08:09:18;98249.90;;;22.14;35.69
69221;BME280;56331;51.992;20.910;2023-03-14T08:11:45;98252.86;;;22.15;35.55
69221;BME280;56331;51.992;20.910;2023-03-14T08:14:11;98239.19;;;22.16;35.47
69221;BME280;56331;51.992;20.910;2023-03-14T08:16:37;98246.93;;;22.16;35.38
69221;BME280;56331;51.992;20.910;2023-03-14T08:19:04;98245.38;;;22.19;35.35
69221;BME280;56331;51.992;20.910;2023-03-14T08:21:30;98246.95;;;22.20;35.48
69221;BME280;56331;51.992;20.910;2023-03-14T08:23:57;98252.31;;;22.22;35.34
69221;BME280;56331;51.992;20.910;2023-03-14T08:26:23;98246.38;;;22.24;35.23
69221;BME280;56331;51.992;20.910;2023-03-14T08:28:49;98254.70;;;22.27;35.16
69221;BME280;56331;51.992;20.910;2023-03-14T08:31:16;98260.05;;;22.30;35.19
69221;BME280;56331;51.992;20.910;2023-03-14T08:33:42;98250.75;;;22.32;35.23
69221;BME280;56331;51.992;20.910;2023-03-14T08:36:09;98255.87;;;22.34;35.17
69221;BME280;56331;51.992;20.910;2023-03-14T08:38:36;98251.53;;;22.36;35.12
69221;BME280;56331;51.992;20.910;2023-03-14T08:41:03;98257.30;;;22.37;35.07
69221;BME280;56331;51.992;20.910;2023-03-14T08:43:30;98257.09;;;22.40;35.04
69221;BME280;56331;51.992;20.910;2023-03-14T08:46:00;98250.75;;;22.43;35.12
69221;BME280;56331;51.992;20.910;2023-03-14T08:48:27;98251.73;;;22.44;35.57
69221;BME280;56331;51.992;20.910;2023-03-14T08:51:04;98244.59;;;22.47;35.82
69221;BME280;56331;51.992;20.910;2023-03-14T08:53:30;98237.46;;;22.49;35.86
69221;BME280;56331;51.992;20.910;2023-03-14T08:55:57;98247.37;;;22.54;35.96
69221;BME280;56331;51.992;20.910;2023-03-14T08:58:23;98242.84;;;22.56;36.06
69221;BME280;56331;51.992;20.910;2023-03-14T09:00:50;98244.02;;;22.58;36.21
69221;BME280;56331;51.992;20.910;2023-03-14T09:03:16;98246.00;;;22.61;36.29
69221;BME280;56331;51.992;20.910;2023-03-14T09:05:42;98241.42;;;22.63;36.41
69221;BME280;56331;51.992;20.910;2023-03-14T09:08:09;98239.05;;;22.65;36.61
69221;BME280;56331;51.992;20.910;2023-03-14T09:10:36;98228.35;;;22.67;36.66
69221;BME280;56331;51.992;20.910;2023-03-14T09:13:04;98229.54;;;22.69;36.74
69221;BME280;56331;51.992;20.910;2023-03-14T09:15:31;98219.44;;;22.71;36.76
69221;BME280;56331;51.992;20.910;2023-03-14T09:17:57;98217.03;;;22.73;36.75
69221;BME280;56331;51.992;20.910;2023-03-14T09:20:24;98209.11;;;22.75;36.72
69221;BME280;56331;51.992;20.910;2023-03-14T09:22:50;98206.73;;;22.77;36.80
69221;BME280;56331;51.992;20.910;2023-03-14T09:25:17;98204.74;;;22.78;36.85
69221;BME280;56331;51.992;20.910;2023-03-14T09:27:43;98209.91;;;22.79;36.85
69221;BME280;56331;51.992;20.910;2023-03-14T09:30:10;98201.98;;;22.81;36.85
69221;BME280;56331;51.992;20.910;2023-03-14T09:32:37;98202.56;;;22.84;36.29
69221;BME280;56331;51.992;20.910;2023-03-14T09:35:04;98204.74;;;22.85;33.57
69221;BME280;56331;51.992;20.910;2023-03-14T09:37:30;98191.45;;;22.81;32.73
69221;BME280;56331;51.992;20.910;2023-03-14T09:39:56;98193.45;;;22.77;32.09
69221;BME280;56331;51.992;20.910;2023-03-14T09:42:25;98185.33;;;22.74;31.79
69221;BME280;56331;51.992;20.910;2023-03-14T09:45:04;98183.73;;;22.73;31.66
69221;BME280;56331;51.992;20.910;2023-03-14T09:47:33;98175.60;;;22.70;31.77
69221;BME280;56331;51.992;20.910;2023-03-14T09:50:00;98174.63;;;22.69;31.97
69221;BME280;56331;51.992;20.910;2023-03-14T09:52:31;98177.41;;;22.69;32.20
69221;BME280;56331;51.992;20.910;2023-03-14T09:55:15;98169.09;;;22.69;32.27
69221;BME280;56331;51.992;20.910;2023-03-14T09:57:44;98168.66;;;22.70;32.32
69221;BME280;56331;51.992;20.910;2023-03-14T10:00:19;98159.77;;;22.71;32.33
69221;BME280;56331;51.992;20.910;2023-03-14T10:02:55;98171.84;;;22.72;32.28
69221;BME280;56331;51.992;20.910;2023-03-14T10:05:24;98171.45;;;22.74;32.30
69221;BME280;56331;51.992;20.910;2023-03-14T10:07:51;98170.67;;;22.74;32.38
69221;BME280;56331;51.992;20.910;2023-03-14T10:10:23;98177.01;;;22.74;32.49
69221;BME280;56331;51.992;20.910;2023-03-14T10:12:58;98188.11;;;22.74;32.63
69221;BME280;56331;51.992;20.910;2023-03-14T10:15:30;98183.34;;;22.75;32.81
69221;BME280;56331;51.992;20.910;2023-03-14T10:17:59;98173.63;;;22.75;32.96
69221;BME280;56331;51.992;20.910;2023-03-14T10:20:39;98172.24;;;22.75;33.02
69221;BME280;56331;51.992;20.910;2023-03-14T10:23:05;98177.98;;;22.76;33.26
69221;BME280;56331;51.992;20.910;2023-03-14T10:25:33;98169.08;;;22.76;33.34
69221;BME280;56331;51.992;20.910;2023-03-14T10:28:00;98173.81;;;22.76;33.42
69221;BME280;56331;51.992;20.910;2023-03-14T10:30:44;98157.37;;;22.77;33.37
69221;BME280;56331;51.992;20.910;2023-03-14T10:33:20;98168.66;;;22.78;33.39
69221;BME280;56331;51.992;20.910;2023-03-14T10:35:52;98166.10;;;22.79;33.40
69221;BME280;56331;51.992;20.910;2023-03-14T10:38:23;98165.50;;;22.79;33.62
69221;BME280;56331;51.992;20.910;2023-03-14T10:40:52;98156.75;;;22.81;33.81
69221;BME280;56331;51.992;20.910;2023-03-14T10:43:30;98152.20;;;22.82;33.92
69221;BME280;56331;51.992;20.910;2023-03-14T10:45:58;98144.48;;;22.82;34.01
69221;BME280;56331;51.992;20.910;2023-03-14T10:48:33;98158.75;;;22.84;34.01
69221;BME280;56331;51.992;20.910;2023-03-14T10:56:13;98152.39;;;22.87;34.17
69221;BME280;56331;51.992;20.910;2023-03-14T10:58:43;98157.73;;;22.86;34.29
69221;BME280;56331;51.992;20.910;2023-03-14T11:06:42;98156.95;;;22.89;34.46
69221;BME280;56331;51.992;20.910;2023-03-14T11:09:31;98160.91;;;22.88;34.53
69221;BME280;56331;51.992;20.910;2023-03-14T11:12:03;98151.19;;;22.88;34.64
69221;BME280;56331;51.992;20.910;2023-03-14T11:14:34;98161.91;;;22.89;34.71
69221;BME280;56331;51.992;20.910;2023-03-14T11:17:16;98161.51;;;22.87;35.13
69221;BME280;56331;51.992;20.910;2023-03-14T11:28:22;98165.87;;;22.92;35.30
69221;BME280;56331;51.992;20.910;2023-03-14T11:31:16;98154.95;;;22.93;35.28
69221;BME280;56331;51.992;20.910;2023-03-14T11:34:07;98154.77;;;22.92;35.30
69221;BME280;56331;51.992;20.910;2023-03-14T11:37:44;98154.77;;;22.92;35.27
69221;BME280;56331;51.992;20.910;2023-03-14T11:39:20;98141.06;;;22.93;35.26
69221;BME280;56331;51.992;20.910;2023-03-14T11:41:50;98152.95;;;22.93;35.30
69221;BME280;56331;51.992;20.910;2023-03-14T11:47:25;98161.10;;;22.92;35.28
69221;BME280;56331;51.992;20.910;2023-03-14T11:52:53;98150.78;;;22.93;35.16
69221;BME280;56331;51.992;20.910;2023-03-14T11:55:28;98154.56;;;22.94;35.16
69221;BME280;56331;51.992;20.910;2023-03-14T11:58:09;98168.02;;;22.96;35.15
69221;BME280;56331;51.992;20.910;2023-03-14T12:00:31;98170.80;;;22.96;35.13
69221;BME280;56331;51.992;20.910;2023-03-14T12:10:37;98168.06;;;23.00;34.99
69221;BME280;56331;51.992;20.910;2023-03-14T12:13:07;98151.79;;;22.98;34.85
69221;BME280;56331;51.992;20.910;2023-03-14T12:15:35;98158.34;;;23.00;34.71
69221;BME280;56331;51.992;20.910;2023-03-14T12:18:03;98171.63;;;23.00;34.54
69221;BME280;56331;51.992;20.910;2023-03-14T12:20:29;98173.40;;;22.99;34.43
69221;BME280;56331;51.992;20.910;2023-03-14T12:23:02;98160.09;;;23.02;34.44
69221;BME280;56331;51.992;20.910;2023-03-14T12:25:28;98166.47;;;23.02;34.42
69221;BME280;56331;51.992;20.910;2023-03-14T12:30:31;98180.53;;;23.03;34.54
69221;BME280;56331;51.992;20.910;2023-03-14T12:35:51;98165.65;;;23.02;34.40
69221;BME280;56331;51.992;20.910;2023-03-14T12:43:48;98171.20;;;23.02;34.26
69221;BME280;56331;51.992;20.910;2023-03-14T12:46:25;98162.88;;;23.02;34.41
69221;BME280;56331;51.992;20.910;2023-03-14T12:49:04;98170.81;;;23.03;34.45
69221;BME280;56331;51.992;20.910;2023-03-14T12:54:25;98168.44;;;23.05;34.53
69221;BME280;56331;51.992;20.910;2023-03-14T12:59:54;98177.55;;;23.06;34.64
69221;BME280;56331;51.992;20.910;2023-03-14T13:05:20;98185.70;;;23.05;34.66
69221;BME280;56331;51.992;20.910;2023-03-14T13:10:20;98176.77;;;23.05;34.96
69221;BME280;56331;51.992;20.910;2023-03-14T13:15:35;98182.50;;;23.06;34.87
69221;BME280;56331;51.992;20.910;2023-03-14T13:18:11;98187.87;;;23.05;34.91
69221;BME280;56331;51.992;20.910;2023-03-14T13:20:51;98192.22;;;23.06;34.97
69221;BME280;56331;51.992;20.910;2023-03-14T13:25:54;98196.61;;;23.07;35.00
69221;BME280;56331;51.992;20.910;2023-03-14T13:28:22;98198.56;;;23.07;35.07
69221;BME280;56331;51.992;20.910;2023-03-14T13:30:54;98184.49;;;23.06;34.99
69221;BME280;56331;51.992;20.910;2023-03-14T13:33:21;98188.66;;;23.06;34.99
69221;BME280;56331;51.992;20.910;2023-03-14T13:36:00;98194.81;;;23.05;35.04
69221;BME280;56331;51.992;20.910;2023-03-14T13:38:29;98192.04;;;23.05;35.02
69221;BME280;56331;51.992;20.910;2023-03-14T13:40:58;98207.91;;;23.05;34.99
69221;BME280;56331;51.992;20.910;2023-03-14T13:43:28;98211.66;;;23.06;35.02
69221;BME280;56331;51.992;20.910;2023-03-14T13:46:16;98211.88;;;23.07;34.96
69221;BME280;56331;51.992;20.910;2023-03-14T13:48:47;98201.55;;;23.08;34.90
69221;BME280;56331;51.992;20.910;2023-03-14T13:51:15;98211.27;;;23.08;34.84
69221;BME280;56331;51.992;20.910;2023-03-14T13:53:47;98215.83;;;23.06;34.83
69221;BME280;56331;51.992;20.910;2023-03-14T13:56:16;98218.81;;;23.07;34.71
69221;BME280;56331;51.992;20.910;2023-03-14T13:58:42;98219.19;;;23.09;34.64
69221;BME280;56331;51.992;20.910;2023-03-14T14:01:30;98211.67;;;23.10;34.56
69221;BME280;56331;51.992;20.910;2023-03-14T14:04:14;98211.07;;;23.10;34.54
69221;BME280;56331;51.992;20.910;2023-03-14T14:06:44;98201.34;;;23.10;34.50